sensor_id;sensor_type;location;lat;lon;timestamp;P1;durP1;ratioP1;P2;durP2;ratioP2
30934;SDS011;51033;42.648;23.292;2023-04-03T00:01:29;3.53;;;1.63;;
30934;SDS011;51033;42.648;23.292;2023-04-03T00:03:55;6.15;;;1.80;;
30934;SDS011;51033;42.648;23.292;2023-04-03T00:06:20;5.97;;;2.15;;
30934;SDS011;51033;42.648;23.292;2023-04-03T00:08:46;1.48;;;1.30;;
30934;SDS011;51033;42.648;23.292;2023-04-03T00:11:12;2.25;;;1.30;;
30934;SDS011;51033;42.648;23.292;2023-04-03T00:13:38;1.83;;;1.27;;
30934;SDS011;51033;42.648;23.292;2023-04-03T00:16:04;2.15;;;1.20;;
30934;SDS011;51033;42.648;23.292;2023-04-03T00:18:31;3.30;;;2.13;;
30934;SDS011;51033;42.648;23.292;2023-04-03T00:20:56;1.20;;;1.10;;
30934;SDS011;51033;42.648;23.292;2023-04-03T00:23:22;1.25;;;1.10;;
30934;SDS011;51033;42.648;23.292;2023-04-03T00:25:49;2.35;;;1.00;;
30934;SDS011;51033;42.648;23.292;2023-04-03T00:28:15;1.30;;;0.90;;
30934;SDS011;51033;42.648;23.292;2023-04-03T00:30:41;1.92;;;1.23;;
30934;SDS011;51033;42.648;23.292;2023-04-03T00:33:06;1.35;;;1.20;;
30934;SDS011;51033;42.648;23.292;2023-04-03T00:35:33;1.85;;;1.10;;
30934;SDS011;51033;42.648;23.292;2023-04-03T00:37:59;1.23;;;0.90;;
30934;SDS011;51033;42.648;23.292;2023-04-03T00:40:26;1.08;;;0.98;;
30934;SDS011;51033;42.648;23.292;2023-04-03T00:42:56;2.35;;;0.95;;
30934;SDS011;51033;42.648;23.292;2023-04-03T00:45:45;1.15;;;1.08;;
30934;SDS011;51033;42.648;23.292;2023-04-03T00:48:13;1.80;;;1.10;;
30934;SDS011;51033;42.648;23.292;2023-04-03T00:50:43;1.15;;;1.08;;
30934;SDS011;51033;42.648;23.292;2023-04-03T00:53:11;1.83;;;1.10;;
30934;SDS011;51033;42.648;23.292;2023-04-03T00:55:41;1.60;;;1.50;;
30934;SDS011;51033;42.648;23.292;2023-04-03T00:58:07;3.60;;;0.90;;
30934;SDS011;51033;42.648;23.292;2023-04-03T01:00:34;3.20;;;1.60;;
30934;SDS011;51033;42.648;23.292;2023-04-03T01:03:02;2.05;;;1.30;;
30934;SDS011;51033;42.648;23.292;2023-04-03T01:05:28;1.10;;;1.00;;
30934;SDS011;51033;42.648;23.292;2023-04-03T01:07:54;2.85;;;1.20;;
30934;SDS011;51033;42.648;23.292;2023-04-03T01:10:20;0.90;;;0.90;;
30934;SDS011;51033;42.648;23.292;2023-04-03T01:12:47;1.17;;;1.08;;
30934;SDS011;51033;42.648;23.292;2023-04-03T01:15:19;1.85;;;0.90;;
30934;SDS011;51033;42.648;23.292;2023-04-03T01:17:54;1.98;;;1.23;;
30934;SDS011;51033;42.648;23.292;2023-04-03T01:25:33;2.53;;;1.48;;
30934;SDS011;51033;42.648;23.292;2023-04-03T01:28:05;1.52;;;1.15;;
30934;SDS011;51033;42.648;23.292;2023-04-03T01:30:36;3.92;;;2.05;;
30934;SDS011;51033;42.648;23.292;2023-04-03T01:33:09;8.15;;;3.65;;
30934;SDS011;51033;42.648;23.292;2023-04-03T01:35:34;9.25;;;5.05;;
30934;SDS011;51033;42.648;23.292;2023-04-03T01:38:00;9.57;;;4.82;;
30934;SDS011;51033;42.648;23.292;2023-04-03T01:40:26;9.30;;;4.07;;
30934;SDS011;51033;42.648;23.292;2023-04-03T01:42:51;6.25;;;3.28;;
30934;SDS011;51033;42.648;23.292;2023-04-03T01:45:17;5.07;;;3.08;;
30934;SDS011;51033;42.648;23.292;2023-04-03T01:47:42;6.88;;;3.13;;
30934;SDS011;51033;42.648;23.292;2023-04-03T01:50:08;9.52;;;3.80;;
30934;SDS011;51033;42.648;23.292;2023-04-03T01:52:33;8.82;;;4.13;;
30934;SDS011;51033;42.648;23.292;2023-04-03T01:54:59;19.27;;;8.15;;
30934;SDS011;51033;42.648;23.292;2023-04-03T01:57:24;21.83;;;8.32;;
30934;SDS011;51033;42.648;23.292;2023-04-03T01:59:50;16.40;;;7.32;;
30934;SDS011;51033;42.648;23.292;2023-04-03T02:02:16;7.22;;;3.72;;
30934;SDS011;51033;42.648;23.292;2023-04-03T02:04:42;10.43;;;4.85;;
30934;SDS011;51033;42.648;23.292;2023-04-03T02:07:07;10.73;;;4.97;;
30934;SDS011;51033;42.648;23.292;2023-04-03T02:09:32;8.88;;;4.32;;
30934;SDS011;51033;42.648;23.292;2023-04-03T02:11:58;6.05;;;3.70;;
30934;SDS011;51033;42.648;23.292;2023-04-03T02:14:24;4.50;;;2.40;;
30934;SDS011;51033;42.648;23.292;2023-04-03T02:16:49;5.32;;;2.58;;
30934;SDS011;51033;42.648;23.292;2023-04-03T02:19:15;5.53;;;2.75;;
30934;SDS011;51033;42.648;23.292;2023-04-03T02:21:41;4.40;;;2.33;;
30934;SDS011;51033;42.648;23.292;2023-04-03T02:24:06;3.95;;;2.42;;
30934;SDS011;51033;42.648;23.292;2023-04-03T02:26:32;4.40;;;2.20;;
30934;SDS011;51033;42.648;23.292;2023-04-03T02:28:57;4.75;;;2.30;;
30934;SDS011;51033;42.648;23.292;2023-04-03T02:31:23;2.10;;;1.90;;
30934;SDS011;51033;42.648;23.292;2023-04-03T02:33:49;4.20;;;2.20;;
30934;SDS011;51033;42.648;23.292;2023-04-03T02:36:15;4.18;;;2.28;;
30934;SDS011;51033;42.648;23.292;2023-04-03T02:38:40;4.22;;;2.63;;
30934;SDS011;51033;42.648;23.292;2023-04-03T02:41:07;3.83;;;2.90;;
30934;SDS011;51033;42.648;23.292;2023-04-03T02:43:34;4.05;;;2.65;;
30934;SDS011;51033;42.648;23.292;2023-04-03T02:45:59;2.75;;;2.33;;
30934;SDS011;51033;42.648;23.292;2023-04-03T02:48:25;3.65;;;2.42;;
30934;SDS011;51033;42.648;23.292;2023-04-03T02:50:51;3.17;;;2.00;;
30934;SDS011;51033;42.648;23.292;2023-04-03T02:53:16;4.60;;;1.58;;
30934;SDS011;51033;42.648;23.292;2023-04-03T02:55:42;4.60;;;1.55;;
30934;SDS011;51033;42.648;23.292;2023-04-03T02:58:09;1.50;;;1.30;;
30934;SDS011;51033;42.648;23.292;2023-04-03T03:00:35;2.67;;;1.50;;
30934;SDS011;51033;42.648;23.292;2023-04-03T03:03:00;1.55;;;1.20;;
30934;SDS011;51033;42.648;23.292;2023-04-03T03:05:27;3.60;;;1.42;;
30934;SDS011;51033;42.648;23.292;2023-04-03T03:07:53;3.30;;;1.63;;
30934;SDS011;51033;42.648;23.292;2023-04-03T03:10:18;3.58;;;1.67;;
30934;SDS011;51033;42.648;23.292;2023-04-03T03:12:44;6.22;;;2.03;;
30934;SDS011;51033;42.648;23.292;2023-04-03T03:15:10;2.83;;;1.50;;
30934;SDS011;51033;42.648;23.292;2023-04-03T03:17:36;2.20;;;2.00;;
30934;SDS011;51033;42.648;23.292;2023-04-03T03:20:02;2.25;;;1.80;;
30934;SDS011;51033;42.648;23.292;2023-04-03T03:22:29;2.50;;;2.22;;
30934;SDS011;51033;42.648;23.292;2023-04-03T03:24:54;2.97;;;2.50;;
30934;SDS011;51033;42.648;23.292;2023-04-03T03:27:20;4.32;;;1.98;;
30934;SDS011;51033;42.648;23.292;2023-04-03T03:29:45;2.90;;;2.10;;
30934;SDS011;51033;42.648;23.292;2023-04-03T03:32:11;3.60;;;2.20;;
30934;SDS011;51033;42.648;23.292;2023-04-03T03:34:36;3.05;;;2.08;;
30934;SDS011;51033;42.648;23.292;2023-04-03T03:37:02;3.35;;;1.75;;
30934;SDS011;51033;42.648;23.292;2023-04-03T03:39:27;2.47;;;1.88;;
30934;SDS011;51033;42.648;23.292;2023-04-03T03:41:53;4.90;;;2.60;;
30934;SDS011;51033;42.648;23.292;2023-04-03T03:44:19;5.38;;;2.33;;
30934;SDS011;51033;42.648;23.292;2023-04-03T03:46:45;3.45;;;2.30;;
30934;SDS011;51033;42.648;23.292;2023-04-03T03:49:10;2.28;;;1.90;;
30934;SDS011;51033;42.648;23.292;2023-04-03T03:51:37;3.78;;;2.90;;
30934;SDS011;51033;42.648;23.292;2023-04-03T03:54:05;2.58;;;2.30;;
30934;SDS011;51033;42.648;23.292;2023-04-03T03:56:31;2.38;;;1.90;;
30934;SDS011;51033;42.648;23.292;2023-04-03T03:58:57;4.40;;;1.92;;
30934;SDS011;51033;42.648;23.292;2023-04-03T04:01:22;2.33;;;1.85;;
30934;SDS011;51033;42.648;23.292;2023-04-03T04:03:49;2.00;;;1.80;;
30934;SDS011;51033;42.648;23.292;2023-04-03T04:06:15;1.50;;;1.40;;
30934;SDS011;51033;42.648;23.292;2023-04-03T04:08:40;3.72;;;1.98;;
30934;SDS011;51033;42.648;23.292;2023-04-03T04:11:08;2.75;;;2.20;;
30934;SDS011;51033;42.648;23.292;2023-04-03T04:13:34;4.72;;;2.72;;
30934;SDS011;51033;42.648;23.292;2023-04-03T04:15:59;2.92;;;2.38;;
30934;SDS011;51033;42.648;23.292;2023-04-03T04:18:25;4.00;;;2.53;;
30934;SDS011;51033;42.648;23.292;2023-04-03T04:20:50;6.53;;;3.10;;
30934;SDS011;51033;42.648;23.292;2023-04-03T04:23:17;3.58;;;2.60;;
30934;SDS011;51033;42.648;23.292;2023-04-03T04:25:46;3.30;;;2.65;;
30934;SDS011;51033;42.648;23.292;2023-04-03T04:28:12;3.63;;;3.13;;
30934;SDS011;51033;42.648;23.292;2023-04-03T04:30:38;4.30;;;2.97;;
30934;SDS011;51033;42.648;23.292;2023-04-03T04:33:03;4.70;;;3.80;;
30934;SDS011;51033;42.648;23.292;2023-04-03T04:35:28;12.75;;;6.85;;
30934;SDS011;51033;42.648;23.292;2023-04-03T04:37:54;9.80;;;6.72;;
30934;SDS011;51033;42.648;23.292;2023-04-03T04:40:19;7.75;;;4.50;;
30934;SDS011;51033;42.648;23.292;2023-04-03T04:42:45;7.47;;;3.53;;
30934;SDS011;51033;42.648;23.292;2023-04-03T04:45:10;8.43;;;4.20;;
30934;SDS011;51033;42.648;23.292;2023-04-03T04:47:36;5.20;;;3.92;;
30934;SDS011;51033;42.648;23.292;2023-04-03T04:50:01;6.88;;;4.10;;
30934;SDS011;51033;42.648;23.292;2023-04-03T04:52:26;5.80;;;3.47;;
30934;SDS011;51033;42.648;23.292;2023-04-03T04:54:52;5.10;;;2.72;;
30934;SDS011;51033;42.648;23.292;2023-04-03T04:57:17;5.50;;;2.83;;
30934;SDS011;51033;42.648;23.292;2023-04-03T04:59:42;3.33;;;2.75;;
30934;SDS011;51033;42.648;23.292;2023-04-03T05:02:08;3.63;;;2.85;;
30934;SDS011;51033;42.648;23.292;2023-04-03T05:04:33;5.20;;;2.92;;
30934;SDS011;51033;42.648;23.292;2023-04-03T05:06:59;3.28;;;2.58;;
30934;SDS011;51033;42.648;23.292;2023-04-03T05:09:24;3.33;;;2.72;;
30934;SDS011;51033;42.648;23.292;2023-04-03T05:11:50;4.68;;;2.60;;
30934;SDS011;51033;42.648;23.292;2023-04-03T05:14:16;5.82;;;2.70;;
30934;SDS011;51033;42.648;23.292;2023-04-03T05:16:41;4.15;;;2.75;;
30934;SDS011;51033;42.648;23.292;2023-04-03T05:19:07;7.13;;;3.75;;
30934;SDS011;51033;42.648;23.292;2023-04-03T05:21:33;8.85;;;3.60;;
30934;SDS011;51033;42.648;23.292;2023-04-03T05:23:59;5.88;;;5.13;;
30934;SDS011;51033;42.648;23.292;2023-04-03T05:26:28;7.93;;;4.43;;
30934;SDS011;51033;42.648;23.292;2023-04-03T05:28:54;26.35;;;7.60;;
30934;SDS011;51033;42.648;23.292;2023-04-03T05:31:20;19.98;;;7.35;;
30934;SDS011;51033;42.648;23.292;2023-04-03T05:33:45;19.75;;;7.80;;
30934;SDS011;51033;42.648;23.292;2023-04-03T05:36:11;24.35;;;9.25;;
30934;SDS011;51033;42.648;23.292;2023-04-03T05:38:37;17.83;;;8.20;;
30934;SDS011;51033;42.648;23.292;2023-04-03T05:41:03;13.88;;;8.35;;
30934;SDS011;51033;42.648;23.292;2023-04-03T05:43:29;17.20;;;7.72;;
30934;SDS011;51033;42.648;23.292;2023-04-03T05:45:55;21.08;;;8.65;;
30934;SDS011;51033;42.648;23.292;2023-04-03T05:48:20;21.85;;;8.57;;
30934;SDS011;51033;42.648;23.292;2023-04-03T05:50:46;15.25;;;8.07;;
30934;SDS011;51033;42.648;23.292;2023-04-03T05:53:21;17.83;;;8.55;;
30934;SDS011;51033;42.648;23.292;2023-04-03T05:55:50;20.73;;;8.48;;
30934;SDS011;51033;42.648;23.292;2023-04-03T05:58:15;16.30;;;8.45;;
30934;SDS011;51033;42.648;23.292;2023-04-03T06:00:40;22.98;;;8.48;;
30934;SDS011;51033;42.648;23.292;2023-04-03T06:03:06;19.58;;;8.18;;
30934;SDS011;51033;42.648;23.292;2023-04-03T06:05:32;24.50;;;8.85;;
30934;SDS011;51033;42.648;23.292;2023-04-03T06:07:57;19.92;;;9.40;;
30934;SDS011;51033;42.648;23.292;2023-04-03T06:10:22;18.40;;;9.40;;
30934;SDS011;51033;42.648;23.292;2023-04-03T06:12:48;21.88;;;9.85;;
30934;SDS011;51033;42.648;23.292;2023-04-03T06:15:13;23.85;;;10.32;;
30934;SDS011;51033;42.648;23.292;2023-04-03T06:17:39;25.63;;;10.93;;
30934;SDS011;51033;42.648;23.292;2023-04-03T06:20:05;30.13;;;11.57;;
30934;SDS011;51033;42.648;23.292;2023-04-03T06:22:31;21.40;;;10.23;;
30934;SDS011;51033;42.648;23.292;2023-04-03T06:24:56;18.05;;;10.65;;
30934;SDS011;51033;42.648;23.292;2023-04-03T06:27:22;24.30;;;10.90;;
30934;SDS011;51033;42.648;23.292;2023-04-03T06:29:48;22.17;;;11.10;;
30934;SDS011;51033;42.648;23.292;2023-04-03T06:32:14;19.40;;;10.77;;
30934;SDS011;51033;42.648;23.292;2023-04-03T06:34:40;21.80;;;11.18;;
30934;SDS011;51033;42.648;23.292;2023-04-03T06:37:06;19.63;;;10.60;;
30934;SDS011;51033;42.648;23.292;2023-04-03T06:39:39;16.30;;;8.13;;
30934;SDS011;51033;42.648;23.292;2023-04-03T06:42:05;25.33;;;7.72;;
30934;SDS011;51033;42.648;23.292;2023-04-03T06:44:30;11.50;;;7.05;;
30934;SDS011;51033;42.648;23.292;2023-04-03T06:46:58;14.55;;;7.32;;
30934;SDS011;51033;42.648;23.292;2023-04-03T06:49:24;27.17;;;10.13;;
30934;SDS011;51033;42.648;23.292;2023-04-03T06:51:50;16.33;;;13.23;;
30934;SDS011;51033;42.648;23.292;2023-04-03T06:54:16;18.65;;;14.45;;
30934;SDS011;51033;42.648;23.292;2023-04-03T06:56:42;21.83;;;16.10;;
30934;SDS011;51033;42.648;23.292;2023-04-03T06:59:07;27.48;;;17.15;;
30934;SDS011;51033;42.648;23.292;2023-04-03T07:01:34;29.05;;;14.02;;
30934;SDS011;51033;42.648;23.292;2023-04-03T07:04:00;24.80;;;14.05;;
30934;SDS011;51033;42.648;23.292;2023-04-03T07:06:25;30.63;;;17.08;;
30934;SDS011;51033;42.648;23.292;2023-04-03T07:08:54;26.02;;;17.27;;
30934;SDS011;51033;42.648;23.292;2023-04-03T07:11:20;23.95;;;14.88;;
30934;SDS011;51033;42.648;23.292;2023-04-03T07:13:46;24.23;;;16.35;;
30934;SDS011;51033;42.648;23.292;2023-04-03T07:16:11;19.75;;;13.77;;
30934;SDS011;51033;42.648;23.292;2023-04-03T07:18:37;16.10;;;14.32;;
30934;SDS011;51033;42.648;23.292;2023-04-03T07:21:03;20.55;;;14.50;;
30934;SDS011;51033;42.648;23.292;2023-04-03T07:23:29;21.27;;;13.43;;
30934;SDS011;51033;42.648;23.292;2023-04-03T07:25:54;28.48;;;11.23;;
30934;SDS011;51033;42.648;23.292;2023-04-03T07:28:21;18.80;;;11.07;;
30934;SDS011;51033;42.648;23.292;2023-04-03T07:30:54;15.55;;;10.18;;
30934;SDS011;51033;42.648;23.292;2023-04-03T07:33:26;11.45;;;8.70;;
30934;SDS011;51033;42.648;23.292;2023-04-03T07:35:51;16.17;;;9.35;;
30934;SDS011;51033;42.648;23.292;2023-04-03T07:38:17;18.25;;;9.85;;
30934;SDS011;51033;42.648;23.292;2023-04-03T07:40:47;14.50;;;9.50;;
30934;SDS011;51033;42.648;23.292;2023-04-03T07:43:17;22.20;;;10.75;;
30934;SDS011;51033;42.648;23.292;2023-04-03T07:45:43;14.48;;;9.50;;
30934;SDS011;51033;42.648;23.292;2023-04-03T07:48:10;11.38;;;7.85;;
30934;SDS011;51033;42.648;23.292;2023-04-03T07:50:36;13.95;;;7.65;;
30934;SDS011;51033;42.648;23.292;2023-04-03T07:53:02;10.90;;;7.35;;
30934;SDS011;51033;42.648;23.292;2023-04-03T07:55:28;12.70;;;7.65;;
30934;SDS011;51033;42.648;23.292;2023-04-03T07:57:53;20.65;;;10.13;;
30934;SDS011;51033;42.648;23.292;2023-04-03T08:00:19;16.42;;;8.27;;
30934;SDS011;51033;42.648;23.292;2023-04-03T08:02:45;13.95;;;7.63;;
30934;SDS011;51033;42.648;23.292;2023-04-03T08:05:16;10.80;;;7.13;;
30934;SDS011;51033;42.648;23.292;2023-04-03T08:07:44;25.25;;;7.95;;
30934;SDS011;51033;42.648;23.292;2023-04-03T08:10:10;11.77;;;8.15;;
30934;SDS011;51033;42.648;23.292;2023-04-03T08:12:35;15.02;;;8.57;;
30934;SDS011;51033;42.648;23.292;2023-04-03T08:15:02;14.05;;;7.97;;
30934;SDS011;51033;42.648;23.292;2023-04-03T08:17:28;21.25;;;7.35;;
30934;SDS011;51033;42.648;23.292;2023-04-03T08:19:54;11.88;;;8.05;;
30934;SDS011;51033;42.648;23.292;2023-04-03T08:22:19;12.23;;;8.05;;
30934;SDS011;51033;42.648;23.292;2023-04-03T08:24:44;13.70;;;9.32;;
30934;SDS011;51033;42.648;23.292;2023-04-03T08:27:10;11.85;;;9.13;;
30934;SDS011;51033;42.648;23.292;2023-04-03T08:29:36;20.08;;;9.05;;
30934;SDS011;51033;42.648;23.292;2023-04-03T08:32:03;15.88;;;10.35;;
30934;SDS011;51033;42.648;23.292;2023-04-03T08:34:29;15.45;;;10.15;;
30934;SDS011;51033;42.648;23.292;2023-04-03T08:36:54;19.42;;;12.45;;
30934;SDS011;51033;42.648;23.292;2023-04-03T08:39:20;21.73;;;11.68;;
30934;SDS011;51033;42.648;23.292;2023-04-03T08:41:46;20.02;;;10.82;;
30934;SDS011;51033;42.648;23.292;2023-04-03T08:49:47;18.05;;;11.60;;
30934;SDS011;51033;42.648;23.292;2023-04-03T08:52:19;18.23;;;13.07;;
30934;SDS011;51033;42.648;23.292;2023-04-03T08:55:07;20.25;;;13.60;;
30934;SDS011;51033;42.648;23.292;2023-04-03T08:58:36;24.63;;;14.05;;
30934;SDS011;51033;42.648;23.292;2023-04-03T09:03:16;21.23;;;13.88;;
30934;SDS011;51033;42.648;23.292;2023-04-03T09:10:52;26.23;;;14.55;;
30934;SDS011;51033;42.648;23.292;2023-04-03T09:13:49;21.83;;;13.00;;
30934;SDS011;51033;42.648;23.292;2023-04-03T09:16:30;34.55;;;14.32;;
30934;SDS011;51033;42.648;23.292;2023-04-03T09:19:15;28.40;;;12.07;;
30934;SDS011;51033;42.648;23.292;2023-04-03T09:21:47;17.23;;;9.88;;
30934;SDS011;51033;42.648;23.292;2023-04-03T09:24:14;19.83;;;11.25;;
30934;SDS011;51033;42.648;23.292;2023-04-03T09:29:23;16.10;;;9.68;;
30934;SDS011;51033;42.648;23.292;2023-04-03T09:31:58;9.45;;;4.63;;
30934;SDS011;51033;42.648;23.292;2023-04-03T09:34:27;7.88;;;3.60;;
30934;SDS011;51033;42.648;23.292;2023-04-03T09:36:54;5.43;;;2.63;;
30934;SDS011;51033;42.648;23.292;2023-04-03T09:39:22;2.25;;;1.65;;
30934;SDS011;51033;42.648;23.292;2023-04-03T09:42:00;2.28;;;1.55;;
30934;SDS011;51033;42.648;23.292;2023-04-03T09:44:36;2.25;;;1.67;;
30934;SDS011;51033;42.648;23.292;2023-04-03T09:52:39;4.30;;;1.87;;
30934;SDS011;51033;42.648;23.292;2023-04-03T09:55:13;2.50;;;1.33;;
30934;SDS011;51033;42.648;23.292;2023-04-03T09:57:41;3.65;;;1.60;;
30934;SDS011;51033;42.648;23.292;2023-04-03T10:00:19;3.95;;;2.55;;
30934;SDS011;51033;42.648;23.292;2023-04-03T10:02:49;1.50;;;1.40;;
30934;SDS011;51033;42.648;23.292;2023-04-03T10:05:50;1.95;;;1.60;;
30934;SDS011;51033;42.648;23.292;2023-04-03T10:11:04;2.33;;;1.40;;
30934;SDS011;51033;42.648;23.292;2023-04-03T10:13:32;2.75;;;1.60;;
30934;SDS011;51033;42.648;23.292;2023-04-03T10:16:10;4.25;;;1.73;;
30934;SDS011;51033;42.648;23.292;2023-04-03T10:21:32;4.60;;;1.50;;
30934;SDS011;51033;42.648;23.292;2023-04-03T10:24:19;2.47;;;1.80;;
30934;SDS011;51033;42.648;23.292;2023-04-03T10:26:57;3.63;;;1.98;;
30934;SDS011;51033;42.648;23.292;2023-04-03T10:34:42;7.03;;;2.30;;
30934;SDS011;51033;42.648;23.292;2023-04-03T10:37:12;2.55;;;1.90;;
30934;SDS011;51033;42.648;23.292;2023-04-03T10:40:02;7.68;;;2.58;;
30934;SDS011;51033;42.648;23.292;2023-04-03T10:42:50;6.63;;;3.38;;
30934;SDS011;51033;42.648;23.292;2023-04-03T10:48:05;4.50;;;2.47;;
30934;SDS011;51033;42.648;23.292;2023-04-03T10:56:05;2.75;;;1.70;;
30934;SDS011;51033;42.648;23.292;2023-04-03T10:58:37;3.50;;;1.75;;
30934;SDS011;51033;42.648;23.292;2023-04-03T11:01:17;2.88;;;2.10;;
30934;SDS011;51033;42.648;23.292;2023-04-03T11:03:51;1.83;;;1.70;;
30934;SDS011;51033;42.648;23.292;2023-04-03T11:06:23;2.35;;;1.90;;
30934;SDS011;51033;42.648;23.292;2023-04-03T11:08:54;3.78;;;2.08;;
30934;SDS011;51033;42.648;23.292;2023-04-03T11:11:30;6.40;;;2.10;;
30934;SDS011;51033;42.648;23.292;2023-04-03T11:16:27;4.25;;;2.55;;
30934;SDS011;51033;42.648;23.292;2023-04-03T11:18:58;2.88;;;2.58;;
30934;SDS011;51033;42.648;23.292;2023-04-03T11:21:34;5.30;;;2.58;;
30934;SDS011;51033;42.648;23.292;2023-04-03T11:24:05;2.55;;;2.33;;
30934;SDS011;51033;42.648;23.292;2023-04-03T11:26:43;9.60;;;3.10;;
30934;SDS011;51033;42.648;23.292;2023-04-03T11:29:12;5.70;;;3.90;;
30934;SDS011;51033;42.648;23.292;2023-04-03T11:34:44;12.27;;;4.95;;
30934;SDS011;51033;42.648;23.292;2023-04-03T11:39:50;6.63;;;4.90;;
30934;SDS011;51033;42.648;23.292;2023-04-03T11:48:06;6.57;;;5.15;;
30934;SDS011;51033;42.648;23.292;2023-04-03T12:21:20;6.35;;;5.45;;
30934;SDS011;51033;42.648;23.292;2023-04-03T12:24:12;7.00;;;5.10;;
30934;SDS011;51033;42.648;23.292;2023-04-03T12:43:30;9.75;;;7.07;;
30934;SDS011;51033;42.648;23.292;2023-04-03T12:46:15;10.05;;;7.18;;
30934;SDS011;51033;42.648;23.292;2023-04-03T12:51:09;12.30;;;8.18;;
30934;SDS011;51033;42.648;23.292;2023-04-03T12:53:44;12.52;;;8.30;;
30934;SDS011;51033;42.648;23.292;2023-04-03T12:56:21;10.10;;;7.95;;
30934;SDS011;51033;42.648;23.292;2023-04-03T12:58:52;10.63;;;7.80;;
30934;SDS011;51033;42.648;23.292;2023-04-03T13:01:23;10.30;;;7.75;;
30934;SDS011;51033;42.648;23.292;2023-04-03T13:03:54;8.55;;;7.75;;
30934;SDS011;51033;42.648;23.292;2023-04-03T13:06:30;12.43;;;8.20;;
30934;SDS011;51033;42.648;23.292;2023-04-03T13:09:00;10.15;;;7.88;;
30934;SDS011;51033;42.648;23.292;2023-04-03T13:11:47;9.30;;;6.90;;
30934;SDS011;51033;42.648;23.292;2023-04-03T13:14:16;15.00;;;8.55;;
30934;SDS011;51033;42.648;23.292;2023-04-03T13:19:50;9.00;;;7.93;;
30934;SDS011;51033;42.648;23.292;2023-04-03T13:24:54;8.80;;;6.20;;
30934;SDS011;51033;42.648;23.292;2023-04-03T13:27:21;6.55;;;5.90;;
30934;SDS011;51033;42.648;23.292;2023-04-03T13:29:51;7.28;;;6.57;;
30934;SDS011;51033;42.648;23.292;2023-04-03T13:32:23;7.38;;;6.50;;
30934;SDS011;51033;42.648;23.292;2023-04-03T13:34:51;6.68;;;5.80;;
30934;SDS011;51033;42.648;23.292;2023-04-03T13:37:27;7.85;;;6.55;;
30934;SDS011;51033;42.648;23.292;2023-04-03T13:40:03;7.05;;;6.40;;
30934;SDS011;51033;42.648;23.292;2023-04-03T13:42:40;6.07;;;5.47;;
30934;SDS011;51033;42.648;23.292;2023-04-03T13:47:45;9.45;;;6.50;;
30934;SDS011;51033;42.648;23.292;2023-04-03T13:50:23;8.18;;;6.47;;
30934;SDS011;51033;42.648;23.292;2023-04-03T13:52:55;9.50;;;6.22;;
30934;SDS011;51033;42.648;23.292;2023-04-03T13:55:34;5.75;;;5.25;;
30934;SDS011;51033;42.648;23.292;2023-04-03T13:58:03;9.70;;;6.07;;
30934;SDS011;51033;42.648;23.292;2023-04-03T14:00:48;7.82;;;6.45;;
30934;SDS011;51033;42.648;23.292;2023-04-03T14:05:52;8.63;;;7.00;;
30934;SDS011;51033;42.648;23.292;2023-04-03T14:08:19;10.55;;;7.38;;
30934;SDS011;51033;42.648;23.292;2023-04-03T14:10:45;9.85;;;7.35;;
30934;SDS011;51033;42.648;23.292;2023-04-03T14:13:16;7.07;;;6.07;;
30934;SDS011;51033;42.648;23.292;2023-04-03T14:15:43;9.80;;;7.32;;
30934;SDS011;51033;42.648;23.292;2023-04-03T14:18:13;8.40;;;7.25;;
30934;SDS011;51033;42.648;23.292;2023-04-03T14:20:40;19.35;;;11.65;;
30934;SDS011;51033;42.648;23.292;2023-04-03T14:23:06;7.80;;;6.95;;
30934;SDS011;51033;42.648;23.292;2023-04-03T14:25:32;8.93;;;6.63;;
30934;SDS011;51033;42.648;23.292;2023-04-03T14:27:58;13.07;;;8.50;;
30934;SDS011;51033;42.648;23.292;2023-04-03T14:30:29;10.10;;;7.65;;
30934;SDS011;51033;42.648;23.292;2023-04-03T14:32:56;7.75;;;6.35;;
30934;SDS011;51033;42.648;23.292;2023-04-03T14:35:22;6.75;;;5.85;;
30934;SDS011;51033;42.648;23.292;2023-04-03T14:37:48;10.20;;;7.90;;
30934;SDS011;51033;42.648;23.292;2023-04-03T14:40:17;9.38;;;7.40;;
30934;SDS011;51033;42.648;23.292;2023-04-03T14:42:45;7.95;;;5.35;;
30934;SDS011;51033;42.648;23.292;2023-04-03T14:45:12;5.97;;;5.30;;
30934;SDS011;51033;42.648;23.292;2023-04-03T14:47:45;7.70;;;5.13;;
30934;SDS011;51033;42.648;23.292;2023-04-03T14:50:15;8.38;;;5.57;;
30934;SDS011;51033;42.648;23.292;2023-04-03T14:52:43;5.95;;;5.45;;
30934;SDS011;51033;42.648;23.292;2023-04-03T14:55:18;6.65;;;5.30;;
30934;SDS011;51033;42.648;23.292;2023-04-03T15:00:14;3.75;;;3.45;;
30934;SDS011;51033;42.648;23.292;2023-04-03T15:02:41;5.07;;;4.47;;
30934;SDS011;51033;42.648;23.292;2023-04-03T15:05:08;5.18;;;4.30;;
30934;SDS011;51033;42.648;23.292;2023-04-03T15:07:36;4.95;;;4.22;;
30934;SDS011;51033;42.648;23.292;2023-04-03T15:10:13;6.57;;;5.07;;
30934;SDS011;51033;42.648;23.292;2023-04-03T15:12:39;6.00;;;4.47;;
30934;SDS011;51033;42.648;23.292;2023-04-03T15:15:05;6.82;;;5.38;;
30934;SDS011;51033;42.648;23.292;2023-04-03T15:17:31;7.32;;;5.00;;
30934;SDS011;51033;42.648;23.292;2023-04-03T15:19:56;7.03;;;5.15;;
30934;SDS011;51033;42.648;23.292;2023-04-03T15:22:23;6.85;;;5.10;;
30934;SDS011;51033;42.648;23.292;2023-04-03T15:24:49;5.80;;;4.93;;
30934;SDS011;51033;42.648;23.292;2023-04-03T15:27:14;5.80;;;4.78;;
30934;SDS011;51033;42.648;23.292;2023-04-03T15:29:41;6.30;;;4.85;;
30934;SDS011;51033;42.648;23.292;2023-04-03T15:32:08;7.22;;;5.38;;
30934;SDS011;51033;42.648;23.292;2023-04-03T15:34:34;6.30;;;5.53;;
30934;SDS011;51033;42.648;23.292;2023-04-03T15:36:59;7.28;;;5.97;;
30934;SDS011;51033;42.648;23.292;2023-04-03T15:39:25;8.65;;;6.13;;
30934;SDS011;51033;42.648;23.292;2023-04-03T15:41:51;7.75;;;6.15;;
30934;SDS011;51033;42.648;23.292;2023-04-03T15:44:18;8.32;;;6.07;;
30934;SDS011;51033;42.648;23.292;2023-04-03T15:46:47;6.50;;;5.50;;
30934;SDS011;51033;42.648;23.292;2023-04-03T15:49:14;6.28;;;5.13;;
30934;SDS011;51033;42.648;23.292;2023-04-03T15:51:41;6.28;;;5.68;;
30934;SDS011;51033;42.648;23.292;2023-04-03T15:54:06;8.85;;;6.63;;
30934;SDS011;51033;42.648;23.292;2023-04-03T15:56:32;7.03;;;6.32;;
30934;SDS011;51033;42.648;23.292;2023-04-03T15:58:57;7.65;;;6.35;;
30934;SDS011;51033;42.648;23.292;2023-04-03T16:01:23;6.30;;;5.70;;
30934;SDS011;51033;42.648;23.292;2023-04-03T16:03:48;8.00;;;5.63;;
30934;SDS011;51033;42.648;23.292;2023-04-03T16:06:14;6.50;;;5.50;;
30934;SDS011;51033;42.648;23.292;2023-04-03T16:08:41;6.93;;;6.22;;
30934;SDS011;51033;42.648;23.292;2023-04-03T16:11:07;6.75;;;5.63;;
30934;SDS011;51033;42.648;23.292;2023-04-03T16:13:33;4.10;;;3.70;;
30934;SDS011;51033;42.648;23.292;2023-04-03T16:15:59;4.05;;;3.42;;
30934;SDS011;51033;42.648;23.292;2023-04-03T16:18:25;4.10;;;3.45;;
30934;SDS011;51033;42.648;23.292;2023-04-03T16:20:51;4.13;;;3.20;;
30934;SDS011;51033;42.648;23.292;2023-04-03T16:23:17;5.22;;;3.65;;
30934;SDS011;51033;42.648;23.292;2023-04-03T16:25:42;4.78;;;4.28;;
30934;SDS011;51033;42.648;23.292;2023-04-03T16:28:12;5.85;;;5.10;;
30934;SDS011;51033;42.648;23.292;2023-04-03T16:30:41;6.78;;;5.32;;
30934;SDS011;51033;42.648;23.292;2023-04-03T16:33:08;9.63;;;5.80;;
30934;SDS011;51033;42.648;23.292;2023-04-03T16:35:35;6.70;;;5.25;;
30934;SDS011;51033;42.648;23.292;2023-04-03T16:38:01;10.95;;;7.32;;